sensor_id;sensor_type;location;lat;lon;timestamp;P1;durP1;ratioP1;P2;durP2;ratioP2
56477;SDS011;42382;53.210;5.772;2023-07-13T00:00:34;3.60;;;0.50;;
56477;SDS011;42382;53.210;5.772;2023-07-13T00:03:01;6.45;;;0.63;;
56477;SDS011;42382;53.210;5.772;2023-07-13T00:05:28;4.60;;;0.65;;
56477;SDS011;42382;53.210;5.772;2023-07-13T00:07:54;2.70;;;0.40;;
56477;SDS011;42382;53.210;5.772;2023-07-13T00:10:22;6.57;;;0.52;;
56477;SDS011;42382;53.210;5.772;2023-07-13T00:12:48;6.03;;;0.65;;
56477;SDS011;42382;53.210;5.772;2023-07-13T00:15:18;7.10;;;0.90;;
56477;SDS011;42382;53.210;5.772;2023-07-13T00:17:56;7.30;;;1.02;;
56477;SDS011;42382;53.210;5.772;2023-07-13T00:20:23;3.63;;;0.30;;
56477;SDS011;42382;53.210;5.772;2023-07-13T00:22:50;4.38;;;0.57;;
56477;SDS011;42382;53.210;5.772;2023-07-13T00:25:18;2.88;;;0.30;;
56477;SDS011;42382;53.210;5.772;2023-07-13T00:27:46;5.13;;;0.75;;
56477;SDS011;42382;53.210;5.772;2023-07-13T00:30:16;4.13;;;0.50;;
56477;SDS011;42382;53.210;5.772;2023-07-13T00:32:41;3.65;;;0.50;;
56477;SDS011;42382;53.210;5.772;2023-07-13T00:35:07;3.17;;;0.50;;
56477;SDS011;42382;53.210;5.772;2023-07-13T00:37:33;3.60;;;0.47;;
56477;SDS011;42382;53.210;5.772;2023-07-13T00:40:01;2.97;;;0.50;;
56477;SDS011;42382;53.210;5.772;2023-07-13T00:42:31;4.20;;;0.40;;
56477;SDS011;42382;53.210;5.772;2023-07-13T00:45:05;3.75;;;0.32;;
56477;SDS011;42382;53.210;5.772;2023-07-13T00:47:51;2.70;;;0.20;;
56477;SDS011;42382;53.210;5.772;2023-07-13T00:50:17;1.70;;;0.20;;
56477;SDS011;42382;53.210;5.772;2023-07-13T00:52:46;5.07;;;0.40;;
56477;SDS011;42382;53.210;5.772;2023-07-13T00:55:18;2.67;;;0.20;;
56477;SDS011;42382;53.210;5.772;2023-07-13T00:57:46;0.95;;;0.20;;
56477;SDS011;42382;53.210;5.772;2023-07-13T01:00:12;2.30;;;0.32;;
56477;SDS011;42382;53.210;5.772;2023-07-13T01:02:48;3.13;;;0.20;;
56477;SDS011;42382;53.210;5.772;2023-07-13T01:05:20;3.20;;;0.38;;
56477;SDS011;42382;53.210;5.772;2023-07-13T01:07:48;3.90;;;0.10;;
56477;SDS011;42382;53.210;5.772;2023-07-13T01:10:17;1.52;;;0.10;;
56477;SDS011;42382;53.210;5.772;2023-07-13T01:12:46;3.53;;;0.35;;
56477;SDS011;42382;53.210;5.772;2023-07-13T01:18:03;1.40;;;0.10;;
56477;SDS011;42382;53.210;5.772;2023-07-13T01:20:31;2.78;;;0.40;;
56477;SDS011;42382;53.210;5.772;2023-07-13T01:23:00;1.80;;;0.20;;
56477;SDS011;42382;53.210;5.772;2023-07-13T01:25:31;2.80;;;0.10;;
56477;SDS011;42382;53.210;5.772;2023-07-13T01:27:57;3.90;;;0.32;;
56477;SDS011;42382;53.210;5.772;2023-07-13T01:30:23;1.20;;;0.20;;
56477;SDS011;42382;53.210;5.772;2023-07-13T01:32:49;5.53;;;0.98;;
56477;SDS011;42382;53.210;5.772;2023-07-13T01:35:14;2.08;;;0.10;;
56477;SDS011;42382;53.210;5.772;2023-07-13T01:37:41;3.20;;;0.25;;
56477;SDS011;42382;53.210;5.772;2023-07-13T01:40:10;2.97;;;0.28;;
56477;SDS011;42382;53.210;5.772;2023-07-13T01:42:37;7.15;;;0.90;;
56477;SDS011;42382;53.210;5.772;2023-07-13T01:45:03;3.83;;;0.20;;
56477;SDS011;42382;53.210;5.772;2023-07-13T01:47:30;2.38;;;0.25;;
56477;SDS011;42382;53.210;5.772;2023-07-13T01:49:56;3.00;;;0.30;;
56477;SDS011;42382;53.210;5.772;2023-07-13T01:52:22;3.78;;;0.28;;
56477;SDS011;42382;53.210;5.772;2023-07-13T01:54:48;3.78;;;0.63;;
56477;SDS011;42382;53.210;5.772;2023-07-13T01:57:14;3.60;;;0.40;;
56477;SDS011;42382;53.210;5.772;2023-07-13T01:59:40;4.63;;;0.50;;
56477;SDS011;42382;53.210;5.772;2023-07-13T02:02:06;3.65;;;0.50;;
56477;SDS011;42382;53.210;5.772;2023-07-13T02:04:32;3.33;;;0.20;;
56477;SDS011;42382;53.210;5.772;2023-07-13T02:06:58;6.32;;;0.57;;
56477;SDS011;42382;53.210;5.772;2023-07-13T02:09:23;5.32;;;0.50;;
56477;SDS011;42382;53.210;5.772;2023-07-13T02:11:49;6.00;;;0.63;;
56477;SDS011;42382;53.210;5.772;2023-07-13T02:14:15;6.00;;;0.88;;
56477;SDS011;42382;53.210;5.772;2023-07-13T02:16:40;3.35;;;0.40;;
56477;SDS011;42382;53.210;5.772;2023-07-13T02:19:07;4.22;;;0.50;;
56477;SDS011;42382;53.210;5.772;2023-07-13T02:21:33;6.38;;;0.52;;
56477;SDS011;42382;53.210;5.772;2023-07-13T02:23:59;7.25;;;0.98;;
56477;SDS011;42382;53.210;5.772;2023-07-13T02:26:25;8.18;;;0.63;;
56477;SDS011;42382;53.210;5.772;2023-07-13T02:28:52;8.35;;;0.70;;
56477;SDS011;42382;53.210;5.772;2023-07-13T02:31:18;3.95;;;0.60;;
56477;SDS011;42382;53.210;5.772;2023-07-13T02:33:44;6.03;;;0.68;;
56477;SDS011;42382;53.210;5.772;2023-07-13T02:36:10;5.75;;;0.50;;
56477;SDS011;42382;53.210;5.772;2023-07-13T02:38:36;4.40;;;0.90;;
56477;SDS011;42382;53.210;5.772;2023-07-13T02:41:06;4.55;;;0.50;;
56477;SDS011;42382;53.210;5.772;2023-07-13T02:43:33;9.82;;;0.75;;
56477;SDS011;42382;53.210;5.772;2023-07-13T02:45:59;5.68;;;0.93;;
56477;SDS011;42382;53.210;5.772;2023-07-13T02:48:29;5.18;;;0.60;;
56477;SDS011;42382;53.210;5.772;2023-07-13T02:50:55;7.18;;;0.70;;
56477;SDS011;42382;53.210;5.772;2023-07-13T02:53:20;10.02;;;1.02;;
56477;SDS011;42382;53.210;5.772;2023-07-13T02:55:46;6.20;;;0.90;;
56477;SDS011;42382;53.210;5.772;2023-07-13T02:58:12;7.13;;;1.02;;
56477;SDS011;42382;53.210;5.772;2023-07-13T03:00:42;7.18;;;1.25;;
56477;SDS011;42382;53.210;5.772;2023-07-13T03:03:08;6.55;;;0.75;;
56477;SDS011;42382;53.210;5.772;2023-07-13T03:05:34;8.13;;;1.08;;
56477;SDS011;42382;53.210;5.772;2023-07-13T03:08:02;8.77;;;1.10;;
56477;SDS011;42382;53.210;5.772;2023-07-13T03:10:29;6.70;;;0.73;;
56477;SDS011;42382;53.210;5.772;2023-07-13T03:12:54;12.30;;;1.15;;
56477;SDS011;42382;53.210;5.772;2023-07-13T03:15:20;8.32;;;1.17;;
56477;SDS011;42382;53.210;5.772;2023-07-13T03:17:46;9.93;;;1.35;;
56477;SDS011;42382;53.210;5.772;2023-07-13T03:20:12;6.55;;;1.17;;
56477;SDS011;42382;53.210;5.772;2023-07-13T03:22:37;11.60;;;1.35;;
56477;SDS011;42382;53.210;5.772;2023-07-13T03:25:03;5.40;;;1.05;;
56477;SDS011;42382;53.210;5.772;2023-07-13T03:27:29;4.43;;;0.70;;
56477;SDS011;42382;53.210;5.772;2023-07-13T03:29:56;10.45;;;2.08;;
56477;SDS011;42382;53.210;5.772;2023-07-13T03:32:22;8.18;;;1.40;;
56477;SDS011;42382;53.210;5.772;2023-07-13T03:34:48;9.90;;;1.23;;
56477;SDS011;42382;53.210;5.772;2023-07-13T03:37:13;9.40;;;1.40;;
56477;SDS011;42382;53.210;5.772;2023-07-13T03:39:39;6.43;;;1.10;;
56477;SDS011;42382;53.210;5.772;2023-07-13T03:42:05;8.88;;;2.03;;
56477;SDS011;42382;53.210;5.772;2023-07-13T03:44:31;9.65;;;1.30;;
56477;SDS011;42382;53.210;5.772;2023-07-13T03:46:57;13.32;;;1.77;;
56477;SDS011;42382;53.210;5.772;2023-07-13T03:49:22;10.52;;;1.85;;
56477;SDS011;42382;53.210;5.772;2023-07-13T03:51:51;9.93;;;1.75;;
56477;SDS011;42382;53.210;5.772;2023-07-13T03:54:16;9.13;;;2.17;;
56477;SDS011;42382;53.210;5.772;2023-07-13T03:56:42;9.02;;;1.67;;
56477;SDS011;42382;53.210;5.772;2023-07-13T03:59:08;7.20;;;2.03;;
56477;SDS011;42382;53.210;5.772;2023-07-13T04:01:34;7.82;;;1.60;;
56477;SDS011;42382;53.210;5.772;2023-07-13T04:04:00;11.93;;;2.35;;
56477;SDS011;42382;53.210;5.772;2023-07-13T04:06:27;9.68;;;1.00;;
56477;SDS011;42382;53.210;5.772;2023-07-13T04:08:55;8.02;;;1.60;;
56477;SDS011;42382;53.210;5.772;2023-07-13T04:11:23;6.38;;;1.92;;
56477;SDS011;42382;53.210;5.772;2023-07-13T04:13:50;8.73;;;1.42;;
56477;SDS011;42382;53.210;5.772;2023-07-13T04:16:17;6.40;;;1.30;;
56477;SDS011;42382;53.210;5.772;2023-07-13T04:18:44;8.60;;;1.42;;
56477;SDS011;42382;53.210;5.772;2023-07-13T04:21:10;10.73;;;1.95;;
56477;SDS011;42382;53.210;5.772;2023-07-13T04:23:37;8.75;;;1.90;;
56477;SDS011;42382;53.210;5.772;2023-07-13T04:26:03;9.63;;;1.50;;
56477;SDS011;42382;53.210;5.772;2023-07-13T04:28:29;14.50;;;2.22;;
56477;SDS011;42382;53.210;5.772;2023-07-13T04:30:55;7.25;;;1.85;;
56477;SDS011;42382;53.210;5.772;2023-07-13T04:33:21;11.98;;;1.63;;
56477;SDS011;42382;53.210;5.772;2023-07-13T04:35:48;7.13;;;1.55;;
56477;SDS011;42382;53.210;5.772;2023-07-13T04:38:15;7.63;;;1.50;;
56477;SDS011;42382;53.210;5.772;2023-07-13T04:40:42;8.43;;;1.60;;
56477;SDS011;42382;53.210;5.772;2023-07-13T04:43:10;9.30;;;1.95;;
56477;SDS011;42382;53.210;5.772;2023-07-13T04:45:36;11.50;;;2.25;;
56477;SDS011;42382;53.210;5.772;2023-07-13T04:48:02;11.90;;;2.30;;
56477;SDS011;42382;53.210;5.772;2023-07-13T04:50:28;10.05;;;2.03;;
56477;SDS011;42382;53.210;5.772;2023-07-13T04:52:54;8.68;;;1.52;;
56477;SDS011;42382;53.210;5.772;2023-07-13T04:55:20;6.78;;;1.60;;
56477;SDS011;42382;53.210;5.772;2023-07-13T04:57:46;6.78;;;1.70;;
56477;SDS011;42382;53.210;5.772;2023-07-13T05:00:12;7.22;;;1.92;;
56477;SDS011;42382;53.210;5.772;2023-07-13T05:02:40;7.50;;;1.90;;
56477;SDS011;42382;53.210;5.772;2023-07-13T05:05:09;5.38;;;1.40;;
56477;SDS011;42382;53.210;5.772;2023-07-13T05:07:35;9.00;;;1.75;;
56477;SDS011;42382;53.210;5.772;2023-07-13T05:10:01;9.82;;;1.63;;
56477;SDS011;42382;53.210;5.772;2023-07-13T05:12:28;7.70;;;1.73;;
56477;SDS011;42382;53.210;5.772;2023-07-13T05:14:53;9.73;;;1.52;;
56477;SDS011;42382;53.210;5.772;2023-07-13T05:17:19;8.13;;;1.45;;
56477;SDS011;42382;53.210;5.772;2023-07-13T05:19:45;13.73;;;2.53;;
56477;SDS011;42382;53.210;5.772;2023-07-13T05:22:10;6.70;;;1.42;;
56477;SDS011;42382;53.210;5.772;2023-07-13T05:24:36;6.93;;;1.30;;
56477;SDS011;42382;53.210;5.772;2023-07-13T05:27:02;6.78;;;1.55;;
56477;SDS011;42382;53.210;5.772;2023-07-13T05:29:27;5.50;;;1.13;;
56477;SDS011;42382;53.210;5.772;2023-07-13T05:31:53;3.90;;;0.98;;
56477;SDS011;42382;53.210;5.772;2023-07-13T05:34:19;12.68;;;5.95;;
56477;SDS011;42382;53.210;5.772;2023-07-13T05:36:45;4.88;;;1.50;;
56477;SDS011;42382;53.210;5.772;2023-07-13T05:39:11;4.22;;;0.80;;
56477;SDS011;42382;53.210;5.772;2023-07-13T05:41:36;3.92;;;0.80;;
56477;SDS011;42382;53.210;5.772;2023-07-13T05:44:03;8.55;;;2.30;;
56477;SDS011;42382;53.210;5.772;2023-07-13T05:46:31;7.65;;;1.15;;
56477;SDS011;42382;53.210;5.772;2023-07-13T05:48:57;6.07;;;0.85;;
56477;SDS011;42382;53.210;5.772;2023-07-13T05:51:23;7.07;;;1.00;;
56477;SDS011;42382;53.210;5.772;2023-07-13T05:53:48;7.40;;;2.90;;
56477;SDS011;42382;53.210;5.772;2023-07-13T05:56:14;8.25;;;0.73;;
56477;SDS011;42382;53.210;5.772;2023-07-13T05:58:40;6.13;;;0.65;;
56477;SDS011;42382;53.210;5.772;2023-07-13T06:01:08;5.65;;;0.82;;
56477;SDS011;42382;53.210;5.772;2023-07-13T06:03:37;2.60;;;0.40;;
56477;SDS011;42382;53.210;5.772;2023-07-13T06:06:04;4.32;;;0.65;;
56477;SDS011;42382;53.210;5.772;2023-07-13T06:08:31;4.63;;;0.40;;
56477;SDS011;42382;53.210;5.772;2023-07-13T06:11:04;4.05;;;0.70;;
56477;SDS011;42382;53.210;5.772;2023-07-13T06:13:51;5.00;;;0.40;;
56477;SDS011;42382;53.210;5.772;2023-07-13T06:16:17;3.75;;;0.32;;
56477;SDS011;42382;53.210;5.772;2023-07-13T06:18:43;3.75;;;0.47;;
56477;SDS011;42382;53.210;5.772;2023-07-13T06:21:10;5.15;;;0.88;;
56477;SDS011;42382;53.210;5.772;2023-07-13T06:23:40;5.47;;;0.38;;
56477;SDS011;42382;53.210;5.772;2023-07-13T06:26:06;1.98;;;0.40;;
56477;SDS011;42382;53.210;5.772;2023-07-13T06:28:33;4.00;;;0.38;;
56477;SDS011;42382;53.210;5.772;2023-07-13T06:30:59;2.53;;;0.60;;
56477;SDS011;42382;53.210;5.772;2023-07-13T06:33:25;3.15;;;0.30;;
56477;SDS011;42382;53.210;5.772;2023-07-13T06:35:51;3.20;;;0.63;;
56477;SDS011;42382;53.210;5.772;2023-07-13T06:38:17;3.20;;;0.40;;
56477;SDS011;42382;53.210;5.772;2023-07-13T06:40:43;3.85;;;0.52;;
56477;SDS011;42382;53.210;5.772;2023-07-13T06:43:08;3.90;;;0.32;;
56477;SDS011;42382;53.210;5.772;2023-07-13T06:45:45;3.08;;;0.20;;
56477;SDS011;42382;53.210;5.772;2023-07-13T06:48:16;2.65;;;0.32;;
56477;SDS011;42382;53.210;5.772;2023-07-13T06:50:43;3.05;;;0.30;;
56477;SDS011;42382;53.210;5.772;2023-07-13T06:53:10;4.75;;;0.43;;
56477;SDS011;42382;53.210;5.772;2023-07-13T06:55:36;2.15;;;0.50;;
56477;SDS011;42382;53.210;5.772;2023-07-13T06:58:02;1.83;;;0.20;;
56477;SDS011;42382;53.210;5.772;2023-07-13T07:00:28;2.20;;;0.30;;
56477;SDS011;42382;53.210;5.772;2023-07-13T07:02:53;4.72;;;0.77;;
56477;SDS011;42382;53.210;5.772;2023-07-13T07:05:19;2.17;;;0.30;;
56477;SDS011;42382;53.210;5.772;2023-07-13T07:07:47;5.63;;;0.40;;
56477;SDS011;42382;53.210;5.772;2023-07-13T07:10:14;3.53;;;0.75;;
56477;SDS011;42382;53.210;5.772;2023-07-13T07:12:40;5.60;;;0.30;;
56477;SDS011;42382;53.210;5.772;2023-07-13T07:15:05;3.88;;;0.40;;
56477;SDS011;42382;53.210;5.772;2023-07-13T07:17:31;3.28;;;0.60;;
56477;SDS011;42382;53.210;5.772;2023-07-13T07:19:57;2.70;;;0.30;;
56477;SDS011;42382;53.210;5.772;2023-07-13T07:22:23;3.45;;;0.40;;
56477;SDS011;42382;53.210;5.772;2023-07-13T07:24:52;4.13;;;0.50;;
56477;SDS011;42382;53.210;5.772;2023-07-13T07:27:18;2.05;;;0.20;;
56477;SDS011;42382;53.210;5.772;2023-07-13T07:29:44;3.17;;;0.50;;
56477;SDS011;42382;53.210;5.772;2023-07-13T07:32:09;1.77;;;0.40;;
56477;SDS011;42382;53.210;5.772;2023-07-13T07:34:35;4.82;;;0.63;;
56477;SDS011;42382;53.210;5.772;2023-07-13T07:37:01;4.07;;;0.25;;
56477;SDS011;42382;53.210;5.772;2023-07-13T07:39:27;1.08;;;0.38;;
56477;SDS011;42382;53.210;5.772;2023-07-13T07:41:53;3.22;;;0.40;;
56477;SDS011;42382;53.210;5.772;2023-07-13T07:44:19;4.47;;;0.40;;
56477;SDS011;42382;53.210;5.772;2023-07-13T07:46:45;4.22;;;0.40;;
56477;SDS011;42382;53.210;5.772;2023-07-13T07:49:11;2.95;;;0.30;;
56477;SDS011;42382;53.210;5.772;2023-07-13T07:51:37;3.75;;;0.40;;
56477;SDS011;42382;53.210;5.772;2023-07-13T07:54:03;3.33;;;0.40;;
56477;SDS011;42382;53.210;5.772;2023-07-13T07:56:29;3.03;;;0.85;;
56477;SDS011;42382;53.210;5.772;2023-07-13T07:58:55;3.17;;;0.38;;
56477;SDS011;42382;53.210;5.772;2023-07-13T08:01:21;2.83;;;0.43;;
56477;SDS011;42382;53.210;5.772;2023-07-13T08:03:47;2.83;;;0.40;;
56477;SDS011;42382;53.210;5.772;2023-07-13T08:06:12;4.72;;;0.50;;
56477;SDS011;42382;53.210;5.772;2023-07-13T08:08:41;3.45;;;0.50;;
56477;SDS011;42382;53.210;5.772;2023-07-13T08:11:07;3.92;;;0.60;;
56477;SDS011;42382;53.210;5.772;2023-07-13T08:13:34;3.80;;;0.68;;
56477;SDS011;42382;53.210;5.772;2023-07-13T08:16:00;4.45;;;0.35;;
56477;SDS011;42382;53.210;5.772;2023-07-13T08:18:26;3.65;;;0.57;;
56477;SDS011;42382;53.210;5.772;2023-07-13T08:20:53;5.07;;;0.40;;
56477;SDS011;42382;53.210;5.772;2023-07-13T08:23:21;4.18;;;0.77;;
56477;SDS011;42382;53.210;5.772;2023-07-13T08:25:51;3.15;;;0.40;;
56477;SDS011;42382;53.210;5.772;2023-07-13T08:28:19;1.65;;;0.20;;
56477;SDS011;42382;53.210;5.772;2023-07-13T08:30:45;3.17;;;0.30;;
56477;SDS011;42382;53.210;5.772;2023-07-13T08:33:23;2.38;;;0.30;;
56477;SDS011;42382;53.210;5.772;2023-07-13T08:35:51;3.13;;;0.40;;
56477;SDS011;42382;53.210;5.772;2023-07-13T08:38:17;2.67;;;0.30;;
56477;SDS011;42382;53.210;5.772;2023-07-13T08:40:43;3.63;;;0.45;;
56477;SDS011;42382;53.210;5.772;2023-07-13T08:43:15;1.88;;;0.22;;
56477;SDS011;42382;53.210;5.772;2023-07-13T08:45:44;2.53;;;0.25;;
56477;SDS011;42382;53.210;5.772;2023-07-13T08:48:18;2.08;;;0.20;;
56477;SDS011;42382;53.210;5.772;2023-07-13T08:53:48;2.80;;;0.47;;
56477;SDS011;42382;53.210;5.772;2023-07-13T08:56:21;1.77;;;0.32;;
56477;SDS011;42382;53.210;5.772;2023-07-13T08:58:51;1.83;;;0.20;;
56477;SDS011;42382;53.210;5.772;2023-07-13T09:04:03;2.30;;;0.28;;
56477;SDS011;42382;53.210;5.772;2023-07-13T09:06:34;3.13;;;0.40;;
56477;SDS011;42382;53.210;5.772;2023-07-13T09:15:03;2.17;;;0.20;;
56477;SDS011;42382;53.210;5.772;2023-07-13T09:17:34;2.20;;;0.20;;
56477;SDS011;42382;53.210;5.772;2023-07-13T09:20:10;1.65;;;0.30;;
56477;SDS011;42382;53.210;5.772;2023-07-13T09:22:42;0.43;;;0.20;;
56477;SDS011;42382;53.210;5.772;2023-07-13T09:25:19;1.13;;;0.10;;
56477;SDS011;42382;53.210;5.772;2023-07-13T09:27:50;0.95;;;0.20;;
56477;SDS011;42382;53.210;5.772;2023-07-13T09:30:24;2.53;;;0.20;;
56477;SDS011;42382;53.210;5.772;2023-07-13T09:32:59;3.55;;;0.20;;
56477;SDS011;42382;53.210;5.772;2023-07-13T09:35:26;1.73;;;0.28;;
56477;SDS011;42382;53.210;5.772;2023-07-13T09:37:57;2.88;;;0.20;;
56477;SDS011;42382;53.210;5.772;2023-07-13T09:40:33;1.15;;;0.20;;
56477;SDS011;42382;53.210;5.772;2023-07-13T09:43:05;1.55;;;0.10;;
56477;SDS011;42382;53.210;5.772;2023-07-13T09:45:35;1.33;;;0.10;;
56477;SDS011;42382;53.210;5.772;2023-07-13T09:48:06;3.38;;;0.20;;
56477;SDS011;42382;53.210;5.772;2023-07-13T09:50:38;1.45;;;0.40;;
56477;SDS011;42382;53.210;5.772;2023-07-13T09:53:04;1.75;;;0.30;;
56477;SDS011;42382;53.210;5.772;2023-07-13T09:55:38;3.33;;;0.50;;
56477;SDS011;42382;53.210;5.772;2023-07-13T10:00:34;4.95;;;0.20;;
56477;SDS011;42382;53.210;5.772;2023-07-13T10:05:42;1.20;;;0.20;;
56477;SDS011;42382;53.210;5.772;2023-07-13T10:08:17;3.03;;;0.20;;
56477;SDS011;42382;53.210;5.772;2023-07-13T10:10:46;1.75;;;0.30;;
56477;SDS011;42382;53.210;5.772;2023-07-13T10:13:24;1.80;;;0.40;;
56477;SDS011;42382;53.210;5.772;2023-07-13T10:15:51;1.67;;;0.20;;
56477;SDS011;42382;53.210;5.772;2023-07-13T10:18:17;1.13;;;0.10;;
56477;SDS011;42382;53.210;5.772;2023-07-13T10:20:43;2.58;;;0.30;;
56477;SDS011;42382;53.210;5.772;2023-07-13T10:23:11;3.03;;;0.32;;
56477;SDS011;42382;53.210;5.772;2023-07-13T10:25:43;2.30;;;0.30;;
56477;SDS011;42382;53.210;5.772;2023-07-13T10:28:31;3.63;;;0.30;;
56477;SDS011;42382;53.210;5.772;2023-07-13T10:31:01;1.85;;;0.20;;
56477;SDS011;42382;53.210;5.772;2023-07-13T10:33:30;1.75;;;0.30;;
56477;SDS011;42382;53.210;5.772;2023-07-13T10:38:40;6.20;;;0.85;;
56477;SDS011;42382;53.210;5.772;2023-07-13T10:41:08;2.45;;;0.30;;
56477;SDS011;42382;53.210;5.772;2023-07-13T10:43:41;4.18;;;0.55;;
56477;SDS011;42382;53.210;5.772;2023-07-13T10:46:10;3.88;;;0.40;;
56477;SDS011;42382;53.210;5.772;2023-07-13T10:48:39;1.70;;;0.30;;
56477;SDS011;42382;53.210;5.772;2023-07-13T10:51:08;1.85;;;0.30;;
56477;SDS011;42382;53.210;5.772;2023-07-13T10:53:36;2.05;;;0.38;;
56477;SDS011;42382;53.210;5.772;2023-07-13T10:56:05;2.53;;;0.60;;
56477;SDS011;42382;53.210;5.772;2023-07-13T10:58:41;2.58;;;0.32;;
56477;SDS011;42382;53.210;5.772;2023-07-13T11:01:17;3.28;;;0.50;;
56477;SDS011;42382;53.210;5.772;2023-07-13T11:06:34;1.67;;;0.45;;
56477;SDS011;42382;53.210;5.772;2023-07-13T11:11:55;1.60;;;0.22;;
56477;SDS011;42382;53.210;5.772;2023-07-13T11:14:30;2.28;;;0.30;;
56477;SDS011;42382;53.210;5.772;2023-07-13T11:19:54;4.25;;;0.57;;
56477;SDS011;42382;53.210;5.772;2023-07-13T11:28:04;2.85;;;0.50;;
56477;SDS011;42382;53.210;5.772;2023-07-13T11:30:44;4.55;;;0.30;;
56477;SDS011;42382;53.210;5.772;2023-07-13T11:36:14;6.22;;;1.20;;
56477;SDS011;42382;53.210;5.772;2023-07-13T11:41:34;3.45;;;0.70;;
56477;SDS011;42382;53.210;5.772;2023-07-13T11:44:22;3.28;;;0.50;;
56477;SDS011;42382;53.210;5.772;2023-07-13T11:46:53;4.05;;;0.45;;
56477;SDS011;42382;53.210;5.772;2023-07-13T11:49:20;4.38;;;0.75;;
56477;SDS011;42382;53.210;5.772;2023-07-13T11:51:47;4.97;;;0.60;;
56477;SDS011;42382;53.210;5.772;2023-07-13T11:54:29;3.08;;;0.60;;
56477;SDS011;42382;53.210;5.772;2023-07-13T11:56:58;5.65;;;0.63;;
56477;SDS011;42382;53.210;5.772;2023-07-13T11:59:27;7.22;;;0.82;;
56477;SDS011;42382;53.210;5.772;2023-07-13T12:01:55;4.25;;;0.73;;
56477;SDS011;42382;53.210;5.772;2023-07-13T12:04:25;5.05;;;0.50;;
56477;SDS011;42382;53.210;5.772;2023-07-13T12:06:54;6.78;;;1.08;;
56477;SDS011;42382;53.210;5.772;2023-07-13T12:09:26;3.65;;;0.73;;
56477;SDS011;42382;53.210;5.772;2023-07-13T12:11:52;4.50;;;0.77;;
56477;SDS011;42382;53.210;5.772;2023-07-13T12:14:19;3.83;;;0.60;;
56477;SDS011;42382;53.210;5.772;2023-07-13T12:16:46;4.93;;;0.93;;
56477;SDS011;42382;53.210;5.772;2023-07-13T12:19:31;5.80;;;1.23;;
56477;SDS011;42382;53.210;5.772;2023-07-13T12:21:57;8.00;;;0.65;;
56477;SDS011;42382;53.210;5.772;2023-07-13T12:24:25;7.80;;;0.52;;
56477;SDS011;42382;53.210;5.772;2023-07-13T12:26:58;5.25;;;0.50;;
56477;SDS011;42382;53.210;5.772;2023-07-13T12:29:26;4.68;;;0.63;;
56477;SDS011;42382;53.210;5.772;2023-07-13T12:31:52;5.43;;;0.88;;
56477;SDS011;42382;53.210;5.772;2023-07-13T12:34:19;4.75;;;0.90;;
56477;SDS011;42382;53.210;5.772;2023-07-13T12:36:47;7.03;;;0.93;;
56477;SDS011;42382;53.210;5.772;2023-07-13T12:39:20;3.38;;;1.05;;
56477;SDS011;42382;53.210;5.772;2023-07-13T12:42:00;7.15;;;1.10;;
56477;SDS011;42382;53.210;5.772;2023-07-13T12:45:00;4.03;;;0.85;;
56477;SDS011;42382;53.210;5.772;2023-07-13T12:47:29;6.28;;;1.23;;
56477;SDS011;42382;53.210;5.772;2023-07-13T12:49:57;6.07;;;1.38;;
56477;SDS011;42382;53.210;5.772;2023-07-13T12:52:30;4.03;;;0.77;;
56477;SDS011;42382;53.210;5.772;2023-07-13T12:55:19;7.72;;;1.10;;
56477;SDS011;42382;53.210;5.772;2023-07-13T12:57:56;4.68;;;1.35;;
56477;SDS011;42382;53.210;5.772;2023-07-13T13:00:33;4.18;;;0.75;;
56477;SDS011;42382;53.210;5.772;2023-07-13T13:05:56;4.72;;;0.80;;
56477;SDS011;42382;53.210;5.772;2023-07-13T13:08:28;4.55;;;0.73;;
56477;SDS011;42382;53.210;5.772;2023-07-13T13:10:54;11.27;;;1.63;;
56477;SDS011;42382;53.210;5.772;2023-07-13T13:13:20;5.40;;;1.13;;
56477;SDS011;42382;53.210;5.772;2023-07-13T13:15:46;4.10;;;1.35;;
56477;SDS011;42382;53.210;5.772;2023-07-13T13:18:16;4.05;;;0.95;;
56477;SDS011;42382;53.210;5.772;2023-07-13T13:20:47;7.80;;;0.98;;
56477;SDS011;42382;53.210;5.772;2023-07-13T13:23:18;5.10;;;0.90;;
56477;SDS011;42382;53.210;5.772;2023-07-13T13:25:49;5.05;;;0.75;;
56477;SDS011;42382;53.210;5.772;2023-07-13T13:28:16;5.07;;;0.80;;
56477;SDS011;42382;53.210;5.772;2023-07-13T13:30:44;5.70;;;1.20;;
56477;SDS011;42382;53.210;5.772;2023-07-13T13:33:12;8.63;;;1.33;;
56477;SDS011;42382;53.210;5.772;2023-07-13T13:35:41;3.00;;;0.50;;
56477;SDS011;42382;53.210;5.772;2023-07-13T13:38:13;4.65;;;1.20;;
56477;SDS011;42382;53.210;5.772;2023-07-13T13:40:45;5.35;;;0.55;;
56477;SDS011;42382;53.210;5.772;2023-07-13T13:43:15;4.55;;;0.90;;
56477;SDS011;42382;53.210;5.772;2023-07-13T13:45:42;8.30;;;0.85;;
56477;SDS011;42382;53.210;5.772;2023-07-13T13:48:14;7.10;;;1.30;;
56477;SDS011;42382;53.210;5.772;2023-07-13T13:50:42;9.45;;;1.30;;
56477;SDS011;42382;53.210;5.772;2023-07-13T13:53:11;6.50;;;0.90;;
56477;SDS011;42382;53.210;5.772;2023-07-13T13:55:38;6.88;;;1.30;;
56477;SDS011;42382;53.210;5.772;2023-07-13T13:58:10;5.28;;;1.00;;
56477;SDS011;42382;53.210;5.772;2023-07-13T14:00:38;4.78;;;0.80;;
56477;SDS011;42382;53.210;5.772;2023-07-13T14:03:04;3.25;;;0.70;;
56477;SDS011;42382;53.210;5.772;2023-07-13T14:05:33;6.93;;;1.15;;
56477;SDS011;42382;53.210;5.772;2023-07-13T14:08:00;6.75;;;0.93;;
56477;SDS011;42382;53.210;5.772;2023-07-13T14:10:25;6.85;;;0.93;;
56477;SDS011;42382;53.210;5.772;2023-07-13T14:12:53;5.22;;;1.42;;
56477;SDS011;42382;53.210;5.772;2023-07-13T14:15:25;3.55;;;0.90;;
56477;SDS011;42382;53.210;5.772;2023-07-13T14:17:53;4.38;;;0.90;;
56477;SDS011;42382;53.210;5.772;2023-07-13T14:20:20;3.67;;;0.77;;
56477;SDS011;42382;53.210;5.772;2023-07-13T14:22:48;6.43;;;1.35;;
56477;SDS011;42382;53.210;5.772;2023-07-13T14:25:15;5.75;;;1.17;;
56477;SDS011;42382;53.210;5.772;2023-07-13T14:27:42;4.80;;;0.82;;
56477;SDS011;42382;53.210;5.772;2023-07-13T14:30:13;5.70;;;1.15;;
56477;SDS011;42382;53.210;5.772;2023-07-13T14:32:40;6.18;;;1.40;;
56477;SDS011;42382;53.210;5.772;2023-07-13T14:35:07;7.75;;;1.20;;
56477;SDS011;42382;53.210;5.772;2023-07-13T14:37:35;3.38;;;0.70;;
56477;SDS011;42382;53.210;5.772;2023-07-13T14:40:01;6.05;;;0.75;;
56477;SDS011;42382;53.210;5.772;2023-07-13T14:42:28;5.95;;;1.15;;
56477;SDS011;42382;53.210;5.772;2023-07-13T14:44:53;6.03;;;0.63;;
56477;SDS011;42382;53.210;5.772;2023-07-13T14:47:19;3.78;;;0.88;;
56477;SDS011;42382;53.210;5.772;2023-07-13T14:49:45;7.40;;;1.38;;
56477;SDS011;42382;53.210;5.772;2023-07-13T14:52:17;7.50;;;1.13;;
56477;SDS011;42382;53.210;5.772;2023-07-13T14:54:45;6.03;;;1.33;;
56477;SDS011;42382;53.210;5.772;2023-07-13T14:57:15;6.00;;;1.02;;
56477;SDS011;42382;53.210;5.772;2023-07-13T14:59:43;3.72;;;1.33;;
56477;SDS011;42382;53.210;5.772;2023-07-13T15:04:38;5.82;;;1.30;;
56477;SDS011;42382;53.210;5.772;2023-07-13T15:07:04;7.60;;;2.33;;
56477;SDS011;42382;53.210;5.772;2023-07-13T15:09:30;7.20;;;1.38;;
56477;SDS011;42382;53.210;5.772;2023-07-13T15:11:56;6.00;;;1.00;;
56477;SDS011;42382;53.210;5.772;2023-07-13T15:14:22;5.50;;;1.58;;
56477;SDS011;42382;53.210;5.772;2023-07-13T15:16:50;7.68;;;1.73;;
56477;SDS011;42382;53.210;5.772;2023-07-13T15:19:19;7.95;;;1.95;;
56477;SDS011;42382;53.210;5.772;2023-07-13T15:21:46;5.82;;;1.40;;
56477;SDS011;42382;53.210;5.772;2023-07-13T15:24:16;4.03;;;1.10;;
56477;SDS011;42382;53.210;5.772;2023-07-13T15:26:42;4.80;;;1.23;;
56477;SDS011;42382;53.210;5.772;2023-07-13T15:29:13;2.92;;;1.00;;
56477;SDS011;42382;53.210;5.772;2023-07-13T15:31:39;7.82;;;1.63;;
56477;SDS011;42382;53.210;5.772;2023-07-13T15:34:15;4.97;;;1.15;;
56477;SDS011;42382;53.210;5.772;2023-07-13T15:36:43;8.43;;;0.90;;
56477;SDS011;42382;53.210;5.772;2023-07-13T15:39:13;4.75;;;1.38;;
56477;SDS011;42382;53.210;5.772;2023-07-13T15:41:43;4.95;;;1.20;;